Time;durP1;ratioP1;P1;durP2;ratioP2;P2;SDS_P1;SDS_P2;PMS_P1;PMS_P2;Temp;Humidity;BMP_temperature;BMP_pressure;BME280_temperature;BME280_humidity;BME280_pressure;Samples;Min_cycle;Max_cycle;Signal;HPM_P1;HPM_P2
2023/11/28 00:01:20;;;;;;;5.50;4.78;;;;;;;-145.63;50.91;39004.69;4945458;29;20031;-66
2023/11/28 00:03:46;;;;;;;4.85;4.35;;;;;;;-145.63;51.13;39241.31;4944875;29;20342;-66
2023/11/28 00:06:18;;;;;;;6.38;4.95;;;;;;;-145.63;51.89;39258.94;4945503;29;20024;-67
2023/11/28 00:08:45;;;;;;;6.53;5.07;;;;;;;-145.63;51.17;39253.06;4945381;29;20035;-66
2023/11/28 00:11:19;;;;;;;5.97;5.38;;;;;;;-145.63;52.41;39258.94;4945604;29;20024;-66
2023/11/28 00:13:45;;;;;;;7.25;5.57;;;;;;;-145.63;51.96;39233.50;4944831;29;20354;-66
2023/11/28 00:16:11;;;;;;;5.68;5.07;;;;;;;-145.63;52.42;39208.06;4948822;29;20035;-67
2023/11/28 00:18:37;;;;;;;6.53;5.80;;;;;;;-145.63;52.53;39223.72;4957207;28;20453;-66
2023/11/28 00:21:02;;;;;;;6.47;5.55;;;;;;;-145.63;51.46;39219.81;4946475;28;20039;-66
2023/11/28 00:23:28;;;;;;;5.60;5.10;;;;;;;-145.63;51.67;39239.38;4964475;28;20030;-67
2023/11/28 00:25:54;;;;;;;6.22;5.63;;;;;;;-145.63;52.00;39233.50;4949035;28;20032;-66
2023/11/28 00:28:19;;;;;;;6.07;5.47;;;;;;;-145.63;52.08;39235.47;4943961;29;20050;-66
2023/11/28 00:30:46;;;;;;;6.88;6.00;;;;;;;-145.63;52.06;39235.47;4945009;29;20030;-66
2023/11/28 00:33:12;;;;;;;8.00;5.97;;;;;;;-145.63;51.56;39219.81;4944754;28;20086;-66
2023/11/28 00:35:38;;;;;;;9.60;5.95;;;;;;;-145.63;52.18;39260.88;4945150;29;20035;-65
2023/11/28 00:38:04;;;;;;;5.35;4.85;;;;;;;-145.63;51.94;39258.94;4945099;29;20060;-66
2023/11/28 00:40:31;;;;;;;6.00;5.35;;;;;;;-145.63;51.79;39235.47;4944953;29;20035;-66
2023/11/28 00:43:00;;;;;;;5.38;4.85;;;;;;;-145.63;52.34;39239.38;4944948;29;20360;-66
2023/11/28 00:45:26;;;;;;;5.97;4.93;;;;;;;-145.63;52.63;39227.63;4944857;29;20028;-66
2023/11/28 00:47:53;;;;;;;7.13;5.50;;;;;;;-145.63;52.10;39255.00;4944982;29;20036;-65
2023/11/28 00:50:18;;;;;;;6.28;5.68;;;;;;;-145.63;52.54;39239.38;4961215;29;20043;-64
2023/11/28 00:52:45;;;;;;;6.85;5.45;;;;;;;-145.63;53.30;39239.38;4949895;29;20032;-65
2023/11/28 00:55:11;;;;;;;6.28;5.63;;;;;;;-145.63;53.65;39241.31;4944781;29;20042;-64
2023/11/28 00:57:37;;;;;;;6.18;5.38;;;;;;;-145.63;52.53;39219.81;4944860;29;20234;-65
2023/11/28 01:00:10;;;;;;;7.55;5.25;;;;;;;-145.63;52.91;39206.13;4945074;29;20027;-65
2023/11/28 01:02:37;;;;;;;9.52;5.80;;;;;;;-145.63;53.19;39217.84;4944386;29;20028;-66
2023/11/28 01:05:04;;;;;;;5.90;5.30;;;;;;;-145.63;54.51;39215.91;4944822;29;20040;-67
2023/11/28 01:07:32;;;;;;;6.03;5.15;;;;;;;-145.63;53.66;39219.81;4944864;29;20090;-67
2023/11/28 01:09:57;;;;;;;6.80;4.93;;;;;;;-145.63;53.74;39057.50;4944995;29;20043;-68
2023/11/28 01:12:24;;;;;;;6.75;5.95;;;;;;;-145.63;54.19;39255.00;4944560;29;20024;-68
2023/11/28 01:14:49;;;;;;;5.32;4.70;;;;;;;-145.63;53.46;39215.91;4939510;29;20538;-67
2023/11/28 01:17:15;;;;;;;7.97;5.25;;;;;;;-145.63;53.53;39217.84;4946895;29;20039;-68
2023/11/28 01:19:41;;;;;;;5.55;4.82;;;;;;;-145.63;53.97;39219.81;4947570;29;20331;-67
2023/11/28 01:22:08;;;;;;;6.40;4.85;;;;;;;-145.63;53.70;39204.16;4948284;29;20032;-66
2023/11/28 01:24:35;;;;;;;6.32;5.10;;;;;;;-145.63;54.75;39239.38;4948010;29;20038;-66
2023/11/28 01:27:01;;;;;;;7.32;5.63;;;;;;;-145.63;55.32;39208.06;4948344;29;20026;-66
2023/11/28 01:29:27;;;;;;;6.55;4.82;;;;;;;-145.63;55.36;39217.84;4948220;29;20032;-65
2023/11/28 01:31:52;;;;;;;7.53;5.53;;;;;;;-145.63;55.79;39221.78;4947918;29;20106;-66
2023/11/28 01:34:18;;;;;;;6.63;5.50;;;;;;;-145.63;55.34;39233.50;4948068;29;20028;-67
2023/11/28 01:36:44;;;;;;;5.57;5.00;;;;;;;-145.63;55.96;39247.19;4947927;29;20039;-66
2023/11/28 01:39:10;;;;;;;5.10;4.60;;;;;;;-145.63;55.74;39241.31;4947972;29;20079;-64
2023/11/28 01:41:36;;;;;;;5.47;4.28;;;;;;;-145.63;56.31;39253.06;4947993;29;20046;-67
2023/11/28 01:44:03;;;;;;;5.93;4.53;;;;;;;-145.63;56.13;39223.72;4947903;29;20020;-66
2023/11/28 01:46:32;;;;;;;5.55;4.78;;;;;;;-145.63;56.57;39219.81;4946787;29;20031;-66
2023/11/28 01:48:58;;;;;;;5.47;4.85;;;;;;;-145.63;56.13;39227.63;4953612;29;20058;-66
2023/11/28 01:51:24;;;;;;;6.50;4.60;;;;;;;-145.63;56.26;39202.22;4964442;28;20070;-67
2023/11/28 01:53:54;;;;;;;4.95;4.38;;;;;;;-145.63;56.38;39241.31;4946663;29;20036;-66
2023/11/28 01:56:20;;;;;;;6.65;5.18;;;;;;;-145.63;57.03;39239.38;4947769;29;20042;-68
2023/11/28 01:58:47;;;;;;;6.32;5.65;;;;;;;-145.63;57.72;39258.94;4947642;29;20307;-67
2023/11/28 02:01:13;;;;;;;7.32;6.43;;;;;;;-145.63;57.82;39223.72;4947540;29;20289;-65
2023/11/28 02:03:44;;;;;;;7.20;6.40;;;;;;;-145.63;57.65;39315.66;4947390;29;20070;-64
2023/11/28 02:06:10;;;;;;;10.98;6.60;;;;;;;-145.63;58.46;39219.81;4930389;29;20307;-65
2023/11/28 02:08:35;;;;;;;9.25;6.90;;;;;;;-145.63;58.99;39223.72;4947541;29;20035;-65
2023/11/28 02:11:02;;;;;;;7.43;6.60;;;;;;;-145.63;58.06;39282.41;4947401;29;20036;-66
2023/11/28 02:13:35;;;;;;;8.55;6.43;;;;;;;-145.63;57.73;39253.06;4947379;29;20027;-65
2023/11/28 02:16:11;;;;;;;8.68;6.78;;;;;;;-145.63;58.12;39274.56;4939121;29;20046;-65
2023/11/28 02:18:37;;;;;;;8.05;7.15;;;;;;;-145.63;58.19;39233.50;4946581;29;20070;-65
2023/11/28 02:21:04;;;;;;;9.07;7.90;;;;;;;-145.63;58.20;39227.63;4947285;29;20481;-65
2023/11/28 02:23:29;;;;;;;7.50;6.68;;;;;;;-145.63;59.03;39213.94;4947209;29;20031;-66
2023/11/28 02:25:58;;;;;;;9.43;7.38;;;;;;;-145.63;58.97;38730.91;4946818;29;20031;-65
2023/11/28 02:28:25;;;;;;;8.80;6.85;;;;;;;-145.63;58.63;39198.31;4947128;29;20075;-65
2023/11/28 02:30:56;;;;;;;7.85;6.63;;;;;;;-145.63;58.93;39219.81;4947106;29;20083;-66
2023/11/28 02:33:22;;;;;;;8.23;6.55;;;;;;;-145.63;58.29;39208.06;4947088;29;20027;-66
2023/11/28 02:35:48;;;;;;;8.88;6.25;;;;;;;-145.63;58.50;39237.41;4947001;29;20038;-67
2023/11/28 02:38:14;;;;;;;8.50;5.90;;;;;;;-145.63;58.60;39196.34;4946760;29;20087;-66
2023/11/28 02:40:41;;;;;;;8.30;5.85;;;;;;;-145.63;58.80;39239.38;4946929;29;20039;-67
2023/11/28 02:43:07;;;;;;;10.02;6.50;;;;;;;-145.63;58.45;39233.50;4946987;29;20091;-67
2023/11/28 02:45:33;;;;;;;7.07;5.60;;;;;;;-145.63;57.95;39280.44;4946945;29;20031;-66
2023/11/28 02:47:58;;;;;;;6.43;5.35;;;;;;;-145.63;58.19;39212.00;4947088;29;20066;-66
2023/11/28 02:50:25;;;;;;;7.25;5.60;;;;;;;-145.63;57.97;39213.94;4963876;29;20105;-67
2023/11/28 02:52:50;;;;;;;6.38;4.78;;;;;;;-145.63;57.98;39217.84;4952519;28;20065;-67
2023/11/28 02:55:16;;;;;;;6.30;5.03;;;;;;;-145.63;57.55;39037.94;4946747;29;20047;-67
2023/11/28 02:57:42;;;;;;;6.57;5.03;;;;;;;-145.63;57.80;39215.91;4946628;29;20027;-66
2023/11/28 03:00:08;;;;;;;6.40;4.57;;;;;;;-145.63;57.52;39106.38;4946692;29;20040;-66
2023/11/28 03:02:37;;;;;;;5.60;4.22;;;;;;;-145.63;57.50;39221.78;4927680;29;20054;-67
2023/11/28 03:05:03;;;;;;;5.10;3.95;;;;;;;-145.63;57.20;39223.72;4942559;29;20054;-66
2023/11/28 03:07:30;;;;;;;6.63;4.75;;;;;;;-145.63;58.11;39245.25;4945551;29;20024;-66
2023/11/28 03:09:55;;;;;;;7.03;4.75;;;;;;;-145.63;57.63;39239.38;4945477;29;20031;-66
2023/11/28 03:12:21;;;;;;;5.65;4.65;;;;;;;-145.63;58.17;39247.19;4945079;29;20054;-67
2023/11/28 03:14:47;;;;;;;5.75;4.80;;;;;;;-145.63;58.50;39239.38;4944198;29;20102;-66
2023/11/28 03:17:13;;;;;;;5.63;4.95;;;;;;;-145.63;58.69;39210.03;4946104;29;20094;-66
2023/11/28 03:19:38;;;;;;;6.40;5.32;;;;;;;-145.63;59.25;39184.59;4944416;29;20050;-66
2023/11/28 03:22:04;;;;;;;7.93;5.57;;;;;;;-145.63;58.75;39212.00;4946084;29;20176;-65
2023/11/28 03:24:32;;;;;;;6.53;5.57;;;;;;;-145.63;59.60;39215.91;4945838;29;20063;-67
2023/11/28 03:26:57;;;;;;;7.35;5.70;;;;;;;-145.63;59.55;39221.78;4946049;29;20123;-67
2023/11/28 03:29:23;;;;;;;6.78;5.68;;;;;;;-145.63;59.53;39190.47;4946068;29;20042;-67
2023/11/28 03:31:48;;;;;;;6.93;6.22;;;;;;;-145.63;59.58;39221.78;4945912;29;20043;-66
2023/11/28 03:34:14;;;;;;;8.98;7.50;;;;;;;-145.63;59.05;39208.06;4945988;29;20062;-65
2023/11/28 03:36:40;;;;;;;9.10;6.75;;;;;;;-145.63;59.53;39255.00;4945736;29;20074;-65
2023/11/28 03:39:05;;;;;;;8.38;6.38;;;;;;;-145.63;58.59;39223.72;4945206;29;20076;-66
2023/11/28 03:41:32;;;;;;;8.20;6.60;;;;;;;-145.63;58.51;39251.09;4945767;29;20028;-66
2023/11/28 03:44:00;;;;;;;6.93;6.22;;;;;;;-145.63;58.36;39255.00;4945871;29;20023;-66
2023/11/28 03:46:26;;;;;;;7.25;6.38;;;;;;;-145.63;58.04;39208.06;4945946;29;20095;-66
2023/11/28 03:48:52;;;;;;;10.55;6.32;;;;;;;-145.63;57.50;39223.72;4950594;29;20039;-66
2023/11/28 03:51:18;;;;;;;8.20;6.70;;;;;;;-145.63;58.27;39219.81;4964359;28;20027;-66
2023/11/28 03:53:44;;;;;;;7.28;6.57;;;;;;;-145.63;56.84;39233.50;4945397;29;20038;-67
2023/11/28 03:56:11;;;;;;;8.65;7.15;;;;;;;-145.63;57.91;39208.06;4945424;29;20319;-66
2023/11/28 03:58:36;;;;;;;12.55;6.43;;;;;;;-145.63;58.17;39223.72;4945256;29;20075;-67
2023/11/28 04:01:04;;;;;;;7.85;6.43;;;;;;;-145.63;58.79;39251.09;4944935;29;20043;-67
2023/11/28 04:03:31;;;;;;;8.02;6.97;;;;;;;-145.63;58.32;39198.31;4945079;29;20038;-66
2023/11/28 04:05:57;;;;;;;9.30;7.55;;;;;;;-145.63;58.68;39225.69;4945365;29;20162;-66
2023/11/28 04:08:23;;;;;;;10.10;8.25;;;;;;;-145.63;58.73;39227.63;4945189;29;20028;-66
2023/11/28 04:10:49;;;;;;;9.80;8.27;;;;;;;-145.63;58.88;39215.91;4944998;29;20027;-67
2023/11/28 04:13:15;;;;;;;11.48;8.38;;;;;;;-145.63;58.96;39258.94;4945442;29;20027;-68
2023/11/28 04:15:41;;;;;;;19.25;6.65;;;;;;;-145.63;57.77;39198.31;4945024;29;20035;-67
2023/11/28 04:18:10;;;;;;;8.55;7.65;;;;;;;-145.63;59.38;39184.59;4944500;29;20193;-66
2023/11/28 04:20:36;;;;;;;9.68;7.30;;;;;;;-145.63;59.63;39239.38;4945062;29;20036;-68
2023/11/28 04:23:02;;;;;;;8.20;6.75;;;;;;;-145.63;58.80;39206.13;4943080;29;20326;-67
2023/11/28 04:25:28;;;;;;;6.38;5.75;;;;;;;-145.63;57.80;39198.31;4943582;29;20268;-66
2023/11/28 04:27:53;;;;;;;5.88;4.68;;;;;;;-145.63;56.18;39198.31;4944993;29;20071;-67
2023/11/28 04:30:19;;;;;;;5.40;4.88;;;;;;;-145.63;56.03;39190.47;4944988;29;20032;-67
2023/11/28 04:32:45;;;;;;;5.55;5.05;;;;;;;-145.63;55.49;39212.00;4944799;29;20141;-65
2023/11/28 04:35:11;;;;;;;6.32;5.30;;;;;;;-145.63;55.47;39233.50;4944936;29;20047;-66
2023/11/28 04:37:36;;;;;;;7.10;5.05;;;;;;;-145.63;55.14;39210.03;4944704;29;20034;-67
2023/11/28 04:40:04;;;;;;;5.68;5.10;;;;;;;-145.63;54.99;39186.56;4944539;29;20028;-69
2023/11/28 04:42:31;;;;;;;6.15;5.55;;;;;;;-145.63;55.84;38680.06;4944642;29;20023;-68
2023/11/28 04:44:57;;;;;;;6.50;5.85;;;;;;;-145.63;55.49;39206.13;4944791;29;20052;-68
2023/11/28 04:47:23;;;;;;;7.63;5.88;;;;;;;-145.63;55.26;39213.94;4944963;29;20032;-68
2023/11/28 04:49:49;;;;;;;13.00;6.10;;;;;;;-145.63;55.53;39210.03;4946680;29;20312;-67
2023/11/28 04:52:14;;;;;;;6.75;6.07;;;;;;;-145.63;56.17;39034.03;4948638;29;20047;-68
2023/11/28 04:54:40;;;;;;;11.13;6.03;;;;;;;-145.63;54.76;39006.66;4948390;29;20028;-69
2023/11/28 04:57:05;;;;;;;5.88;5.30;;;;;;;-145.63;55.30;39255.00;4948620;29;20027;-68
2023/11/28 04:59:31;;;;;;;6.68;5.65;;;;;;;-145.63;54.97;39210.03;4948746;29;20028;-68
2023/11/28 05:01:57;;;;;;;6.95;6.10;;;;;;;-145.63;54.76;39200.25;4948077;29;20039;-68
2023/11/28 05:04:23;;;;;;;10.52;6.85;;;;;;;-145.63;54.49;39200.25;4947416;29;20028;-66
2023/11/28 05:06:48;;;;;;;6.32;5.72;;;;;;;-145.63;54.86;39204.16;4950143;29;20106;-68
2023/11/28 05:09:17;;;;;;;5.78;5.07;;;;;;;-145.63;53.90;39196.34;4956639;28;20043;-67
2023/11/28 05:11:44;;;;;;;6.25;5.65;;;;;;;-145.63;52.83;39206.13;4954750;29;20054;-68
2023/11/28 05:14:10;;;;;;;6.53;5.82;;;;;;;-145.63;53.44;38992.97;4949006;28;20051;-68
2023/11/28 05:16:35;;;;;;;7.53;6.10;;;;;;;-145.63;53.55;39210.03;4938736;29;20058;-68
2023/11/28 05:19:01;;;;;;;7.45;5.75;;;;;;;-145.63;52.79;39204.16;4947283;29;20098;-66
2023/11/28 05:21:26;;;;;;;7.32;5.30;;;;;;;-145.63;52.59;39217.84;4947944;29;20080;-67
2023/11/28 05:23:52;;;;;;;6.75;5.22;;;;;;;-145.63;51.88;39206.13;4952964;29;20023;-66
2023/11/28 05:26:18;;;;;;;5.03;4.30;;;;;;;-145.63;50.97;39256.97;4952352;28;20122;-66
2023/11/28 05:28:44;;;;;;;5.93;4.90;;;;;;;-145.63;51.10;39198.31;4953091;29;20078;-66
2023/11/28 05:31:09;;;;;;;7.13;5.32;;;;;;;-145.63;50.92;39212.00;4952273;29;20027;-65
2023/11/28 05:33:35;;;;;;;5.97;4.93;;;;;;;-145.63;51.47;39196.34;4957038;29;20367;-65
2023/11/28 05:36:06;;;;;;;5.55;4.95;;;;;;;-145.63;51.00;39192.44;4957915;29;20028;-66
2023/11/28 05:38:32;;;;;;;6.43;5.20;;;;;;;-145.63;51.15;39190.47;4946767;29;20028;-67
2023/11/28 05:40:59;;;;;;;6.95;5.22;;;;;;;-145.63;51.52;39212.00;4947884;29;20032;-67
2023/11/28 05:43:28;;;;;;;7.05;5.25;;;;;;;-145.63;50.89;39204.16;4947932;29;20023;-65
2023/11/28 05:45:54;;;;;;;6.63;5.47;;;;;;;-145.63;52.03;39204.16;4946503;29;20031;-66
2023/11/28 05:48:20;;;;;;;7.53;5.75;;;;;;;-145.63;52.97;39198.31;4948507;29;20481;-66
2023/11/28 05:50:46;;;;;;;7.25;6.03;;;;;;;-145.63;53.54;39219.81;4947671;29;20094;-67
2023/11/28 05:53:12;;;;;;;7.70;6.30;;;;;;;-145.63;53.25;39196.34;4947873;29;20036;-67
2023/11/28 05:55:39;;;;;;;7.78;6.53;;;;;;;-145.63;53.08;39239.38;4947182;29;20034;-67
2023/11/28 05:58:07;;;;;;;6.80;6.07;;;;;;;-145.63;53.22;39202.22;4947499;29;20079;-67
2023/11/28 06:00:36;;;;;;;7.93;6.50;;;;;;;-145.63;53.00;39215.91;4947027;29;20076;-68
2023/11/28 06:03:03;;;;;;;7.38;6.00;;;;;;;-145.63;52.77;39190.47;4947377;29;20034;-67
2023/11/28 06:05:29;;;;;;;9.43;6.45;;;;;;;-145.63;52.90;39225.69;4947610;29;20339;-67
2023/11/28 06:07:54;;;;;;;7.95;5.82;;;;;;;-145.63;53.30;39194.38;4947340;29;20028;-67
2023/11/28 06:10:20;;;;;;;8.10;6.22;;;;;;;-145.63;53.95;39196.34;4947709;29;20034;-68
2023/11/28 06:12:46;;;;;;;8.45;6.93;;;;;;;-145.63;53.99;39212.00;4947244;29;20218;-69
2023/11/28 06:15:11;;;;;;;7.63;6.10;;;;;;;-145.63;54.00;39196.34;4947469;29;20027;-64
2023/11/28 06:17:37;;;;;;;7.25;6.45;;;;;;;-145.63;54.54;39200.25;4947315;29;20031;-64
2023/11/28 06:20:04;;;;;;;7.15;6.05;;;;;;;-145.63;54.07;39192.44;4947232;29;20027;-66
2023/11/28 06:22:31;;;;;;;7.07;6.28;;;;;;;-145.63;54.18;39192.44;4947116;29;20023;-66
2023/11/28 06:24:57;;;;;;;8.90;7.10;;;;;;;-145.63;54.70;39208.06;4947056;29;20028;-67
2023/11/28 06:27:23;;;;;;;9.13;6.95;;;;;;;-145.63;54.38;39223.72;4947204;29;20024;-67
2023/11/28 06:29:49;;;;;;;8.90;6.80;;;;;;;-145.63;54.84;39212.00;4946998;29;20031;-65
2023/11/28 06:32:15;;;;;;;8.13;6.68;;;;;;;-145.63;53.96;39208.06;4947250;29;20126;-67
2023/11/28 06:34:41;;;;;;;7.97;6.32;;;;;;;-145.63;54.02;39200.25;4946685;29;20040;-66
2023/11/28 06:37:07;;;;;;;8.27;6.10;;;;;;;-145.63;54.08;39200.25;4946874;29;20039;-66
2023/11/28 06:39:33;;;;;;;8.77;6.43;;;;;;;-145.63;53.64;39210.03;4946951;29;20027;-66
2023/11/28 06:42:00;;;;;;;6.97;5.95;;;;;;;-145.63;53.92;39206.13;4947031;29;20052;-66
2023/11/28 06:44:29;;;;;;;8.18;6.50;;;;;;;-145.63;53.91;39192.44;4946637;29;20081;-66
2023/11/28 06:46:55;;;;;;;9.05;6.45;;;;;;;-145.63;53.73;39192.44;4945816;29;20047;-69
2023/11/28 06:49:21;;;;;;;7.95;6.15;;;;;;;-145.63;53.94;39180.69;4946783;29;20071;-68
2023/11/28 06:51:47;;;;;;;8.70;5.82;;;;;;;-145.63;54.06;39184.59;4946659;29;20027;-67
2023/11/28 06:54:13;;;;;;;7.97;6.32;;;;;;;-145.63;54.37;39227.63;4946658;29;20050;-67
2023/11/28 06:56:39;;;;;;;8.40;5.88;;;;;;;-145.63;54.20;39206.13;4946642;29;20028;-66
2023/11/28 06:59:05;;;;;;;6.20;5.60;;;;;;;-145.63;54.13;39215.91;4946288;29;20364;-66
2023/11/28 07:01:33;;;;;;;6.60;5.72;;;;;;;-145.63;53.17;39190.47;4946319;29;20037;-66
2023/11/28 07:03:59;;;;;;;8.18;6.32;;;;;;;-145.63;53.49;39192.44;4946377;29;20205;-66
2023/11/28 07:06:24;;;;;;;6.78;5.85;;;;;;;-145.63;53.32;39219.81;4946503;29;20019;-66
2023/11/28 07:08:50;;;;;;;6.93;6.03;;;;;;;-145.63;52.87;39167.00;4927268;29;20751;-67
2023/11/28 07:11:19;;;;;;;6.35;5.65;;;;;;;-145.63;53.63;39149.41;4942002;29;20090;-66
2023/11/28 07:13:47;;;;;;;6.88;5.45;;;;;;;-145.63;53.95;39149.41;4955506;29;20027;-65
2023/11/28 07:16:13;;;;;;;7.65;5.82;;;;;;;-145.63;54.60;39129.84;4948973;28;20058;-66
2023/11/28 07:18:39;;;;;;;8.00;6.68;;;;;;;-145.63;55.06;39153.31;4946245;29;20024;-66
2023/11/28 07:21:05;;;;;;;7.95;5.85;;;;;;;-145.63;54.91;39159.19;4946477;29;20035;-66
2023/11/28 07:23:30;;;;;;;7.47;6.20;;;;;;;-145.63;54.53;39155.28;4945810;29;20469;-67
2023/11/28 07:25:56;;;;;;;7.40;5.45;;;;;;;-145.63;54.59;39141.59;4946047;29;20063;-65
2023/11/28 07:28:22;;;;;;;8.00;6.20;;;;;;;-145.63;54.91;39153.31;4946152;29;20024;-66
2023/11/28 07:30:47;;;;;;;9.15;6.32;;;;;;;-145.63;54.97;39167.00;4945928;29;20019;-66
2023/11/28 07:33:13;;;;;;;8.20;6.63;;;;;;;-145.63;55.23;39145.50;4946181;29;20035;-67
2023/11/28 07:35:45;;;;;;;7.32;5.90;;;;;;;-145.63;54.41;39172.88;5115740;27;1407325;-66
2023/11/28 07:38:11;;;;;;;9.30;7.35;;;;;;;-145.63;54.81;39131.81;5126391;27;20027;-67
2023/11/28 07:40:39;;;;;;;6.78;6.07;;;;;;;-145.63;55.43;39163.09;5109148;28;20414;-66
2023/11/28 07:43:05;;;;;;;8.95;6.97;;;;;;;-145.63;55.84;39161.13;5115968;28;20061;-66
2023/11/28 07:45:32;;;;;;;7.25;6.40;;;;;;;-145.63;55.65;39143.53;5098920;28;20472;-65
2023/11/28 07:47:57;;;;;;;8.18;6.40;;;;;;;-145.63;55.99;39024.25;5120121;28;20023;-66
2023/11/28 07:50:24;;;;;;;7.97;6.35;;;;;;;-145.63;55.82;39141.59;5120276;28;20027;-67
2023/11/28 07:52:51;;;;;;;8.48;7.28;;;;;;;-145.63;56.60;39192.44;5108642;28;20049;-65
2023/11/28 07:55:17;;;;;;;7.13;6.15;;;;;;;-145.63;55.66;39182.66;5116908;28;20211;-66
2023/11/28 07:57:44;;;;;;;7.57;6.78;;;;;;;-145.63;55.42;39172.88;5118658;28;20081;-66
2023/11/28 08:00:11;;;;;;;8.40;6.70;;;;;;;-145.63;55.73;39155.28;5116664;28;20031;-65
2023/11/28 08:02:36;;;;;;;9.20;6.68;;;;;;;-145.63;55.45;39163.09;5118831;28;20046;-66
2023/11/28 08:05:04;;;;;;;12.30;6.95;;;;;;;-145.63;55.95;39135.72;5119867;28;20012;-66
2023/11/28 08:07:33;;;;;;;8.80;6.72;;;;;;;-145.63;54.67;39135.72;5118944;28;20189;-66
2023/11/28 08:10:00;;;;;;;9.55;6.97;;;;;;;-145.63;55.37;39141.59;5115766;28;20249;-65
2023/11/28 08:12:28;;;;;;;7.93;6.57;;;;;;;-145.63;54.44;39137.69;5099520;28;20028;-65
2023/11/28 08:15:00;;;;;;;8.55;6.85;;;;;;;-145.63;54.49;39172.88;5119504;28;20080;-66
2023/11/28 08:17:25;;;;;;;8.90;6.63;;;;;;;-145.63;54.51;39165.06;5116085;28;20308;-66
2023/11/28 08:19:51;;;;;;;7.18;6.25;;;;;;;-145.63;54.27;39165.06;5113635;28;20038;-66
2023/11/28 08:22:17;;;;;;;7.57;5.90;;;;;;;-145.63;53.40;39137.69;5118839;28;20023;-66
2023/11/28 08:24:43;;;;;;;10.25;6.05;;;;;;;-145.63;53.21;39168.97;5119427;28;20035;-66
2023/11/28 08:27:09;;;;;;;8.70;6.15;;;;;;;-145.63;53.20;39137.69;5115430;28;20030;-67
2023/11/28 08:29:35;;;;;;;7.72;6.15;;;;;;;-145.63;53.21;39157.22;5101871;28;20032;-66
2023/11/28 08:32:01;;;;;;;9.23;5.90;;;;;;;-145.63;53.10;39131.81;5111136;28;20035;-67
2023/11/28 08:34:26;;;;;;;9.32;6.32;;;;;;;-145.63;53.55;39157.22;5112282;28;20035;-66
2023/11/28 08:36:52;;;;;;;9.27;6.20;;;;;;;-145.63;52.95;39196.34;5098378;28;20040;-66
2023/11/28 08:39:19;;;;;;;8.20;6.97;;;;;;;-145.63;53.19;39149.41;5098998;28;20091;-66
2023/11/28 08:41:44;;;;;;;7.63;6.30;;;;;;;-145.63;52.38;39139.63;5080007;28;20031;-67
2023/11/28 08:44:10;;;;;;;7.15;6.20;;;;;;;-145.63;51.92;39172.88;5092012;28;20292;-67
2023/11/28 08:46:37;;;;;;;8.07;6.13;;;;;;;-145.63;52.28;39184.59;5085044;28;20027;-66
2023/11/28 08:49:05;;;;;;;8.57;6.43;;;;;;;-145.63;52.71;39137.69;5084890;28;20027;-67
2023/11/28 08:51:31;;;;;;;9.18;6.00;;;;;;;-145.63;53.03;39165.06;5082338;28;20043;-67
2023/11/28 08:53:57;;;;;;;12.80;5.95;;;;;;;-145.63;52.78;39153.31;5081870;28;20032;-65
2023/11/28 08:56:23;;;;;;;6.03;5.20;;;;;;;-145.63;51.85;38953.84;5081459;28;20300;-66
2023/11/28 08:58:50;;;;;;;8.35;6.07;;;;;;;-145.63;51.88;39137.69;5084361;28;20031;-65
2023/11/28 09:01:16;;;;;;;7.03;6.20;;;;;;;-145.63;51.93;39163.09;5085047;28;20118;-65
2023/11/28 09:03:42;;;;;;;9.43;6.25;;;;;;;-145.63;52.23;39137.69;5083625;28;20335;-66
2023/11/28 09:06:08;;;;;;;7.97;6.10;;;;;;;-145.63;52.43;39067.28;5064911;28;20036;-66
2023/11/28 09:08:34;;;;;;;7.90;6.25;;;;;;;-145.63;52.12;39141.59;5096896;28;20028;-66
2023/11/28 09:11:02;;;;;;;8.13;6.13;;;;;;;-145.63;51.93;39151.38;5084001;28;20201;-66
2023/11/28 09:13:29;;;;;;;7.53;6.18;;;;;;;-145.63;52.04;39133.75;5076971;28;20208;-66
2023/11/28 09:15:55;;;;;;;8.63;6.25;;;;;;;-145.63;51.90;39133.75;5074026;28;20029;-66
2023/11/28 09:18:21;;;;;;;8.30;5.85;;;;;;;-145.63;51.83;39165.06;5074729;28;20035;-66
2023/11/28 09:20:47;;;;;;;7.68;6.18;;;;;;;-145.63;51.64;39141.59;5077629;28;20025;-67
2023/11/28 09:23:13;;;;;;;7.07;5.55;;;;;;;-145.63;52.18;39133.75;5082132;28;20033;-66
2023/11/28 09:25:39;;;;;;;7.03;6.32;;;;;;;-145.63;52.14;39123.97;5080633;28;20092;-67
2023/11/28 09:28:05;;;;;;;8.35;6.28;;;;;;;-145.63;51.87;39176.78;5082920;28;20035;-67
2023/11/28 09:30:32;;;;;;;6.70;6.03;;;;;;;-145.63;52.27;39133.75;5081620;28;20090;-65
2023/11/28 09:32:58;;;;;;;7.25;5.72;;;;;;;-145.63;52.32;39129.84;5083848;28;20029;-66
2023/11/28 09:35:23;;;;;;;6.22;5.63;;;;;;;-145.63;51.23;39133.75;5085295;28;20094;-66
2023/11/28 09:37:49;;;;;;;8.40;5.72;;;;;;;-145.63;52.18;39137.69;5078255;28;20032;-66
2023/11/28 09:40:15;;;;;;;8.10;6.20;;;;;;;-145.63;52.00;39155.28;5082762;28;20032;-66
2023/11/28 09:42:42;;;;;;;8.38;6.15;;;;;;;-145.63;51.62;39168.97;5082647;28;20024;-66
2023/11/28 09:45:08;;;;;;;8.38;6.25;;;;;;;-145.63;51.82;39200.25;5083878;28;20091;-66
2023/11/28 09:47:36;;;;;;;6.90;6.15;;;;;;;-145.63;52.23;39167.00;5083012;28;20016;-66
2023/11/28 09:50:05;;;;;;;7.78;6.15;;;;;;;-145.63;51.73;39149.41;5083717;28;20021;-66
2023/11/28 09:52:35;;;;;;;6.53;5.82;;;;;;;-145.63;51.34;39133.75;5081323;28;20327;-66
2023/11/28 09:55:01;;;;;;;6.57;5.63;;;;;;;-145.63;51.94;39167.00;5080310;28;20162;-66
2023/11/28 09:57:33;;;;;;;6.55;5.72;;;;;;;-145.63;51.84;39135.72;5080963;28;20028;-66
2023/11/28 09:59:59;;;;;;;7.13;5.82;;;;;;;-145.63;51.73;39133.75;5063132;28;20083;-66
2023/11/28 10:02:28;;;;;;;10.30;6.55;;;;;;;-145.63;51.86;39137.69;5078964;28;20114;-67
2023/11/28 10:04:54;;;;;;;9.63;5.82;;;;;;;-145.63;52.77;39161.13;5072018;28;20032;-66
2023/11/28 10:07:42;;;;;;;8.23;6.18;;;;;;;-145.63;51.27;39143.53;5068541;28;20103;-67
2023/11/28 10:10:09;;;;;;;7.28;5.95;;;;;;;-145.63;52.19;39145.50;5080115;28;20257;-66
2023/11/28 10:12:38;;;;;;;6.85;4.95;;;;;;;-145.63;51.94;38934.28;5079623;28;20317;-66
2023/11/28 10:15:08;;;;;;;7.18;5.90;;;;;;;-145.63;52.00;39147.44;5070974;28;20032;-66
2023/11/28 10:17:37;;;;;;;7.05;6.35;;;;;;;-145.63;52.21;39125.94;5081393;28;20087;-66
2023/11/28 10:20:06;;;;;;;7.75;6.22;;;;;;;-145.63;52.62;39145.50;5073136;28;20025;-66
2023/11/28 10:22:37;;;;;;;6.78;5.43;;;;;;;-145.63;52.13;39122.03;5072631;28;20078;-67
2023/11/28 10:25:09;;;;;;;8.23;6.27;;;;;;;-145.63;52.53;39157.22;5080450;28;20031;-65
2023/11/28 10:27:42;;;;;;;10.20;6.15;;;;;;;-145.63;52.49;39151.38;5081973;28;20017;-66
2023/11/28 10:30:12;;;;;;;8.50;5.88;;;;;;;-145.63;52.44;39127.91;5078029;28;20111;-66
2023/11/28 10:32:39;;;;;;;8.40;5.95;;;;;;;-145.63;51.70;39143.53;5064672;28;20341;-65
2023/11/28 10:35:05;;;;;;;8.73;6.30;;;;;;;-145.63;53.21;38985.13;5082920;28;20048;-67
2023/11/28 10:37:35;;;;;;;8.25;6.63;;;;;;;-145.63;53.64;39168.97;5082931;28;20059;-66
2023/11/28 10:40:06;;;;;;;8.05;6.10;;;;;;;-145.63;53.34;39143.53;5080677;28;20028;-65
2023/11/28 10:42:33;;;;;;;7.75;6.47;;;;;;;-145.63;53.78;39172.88;5083157;28;20247;-65
2023/11/28 10:45:00;;;;;;;9.50;6.50;;;;;;;-145.63;52.90;39188.53;5081378;28;20044;-66
2023/11/28 10:47:29;;;;;;;8.23;6.25;;;;;;;-145.63;53.34;39139.63;5082530;28;20032;-67
2023/11/28 10:49:58;;;;;;;11.20;6.97;;;;;;;-145.63;54.07;39155.28;5082559;28;20039;-66
2023/11/28 10:52:27;;;;;;;6.97;6.07;;;;;;;-145.63;52.77;39161.13;5081650;28;20024;-66
2023/11/28 10:55:01;;;;;;;8.90;6.32;;;;;;;-145.63;52.57;39131.81;5080911;28;20035;-66
2023/11/28 10:57:28;;;;;;;8.23;5.68;;;;;;;-145.63;52.31;39167.00;5072789;28;20020;-66
2023/11/28 11:00:05;;;;;;;7.32;5.60;;;;;;;-145.63;52.73;39157.22;5081722;28;20080;-66
2023/11/28 11:02:31;;;;;;;9.23;6.30;;;;;;;-145.63;52.98;38746.56;5079717;28;20365;-65
2023/11/28 11:04:57;;;;;;;7.20;5.97;;;;;;;-145.63;53.29;39110.28;5081037;28;20092;-66
2023/11/28 11:07:25;;;;;;;7.57;5.90;;;;;;;-145.63;53.20;39141.59;5081644;28;20332;-65
2023/11/28 11:09:51;;;;;;;6.72;5.97;;;;;;;-145.63;53.23;39020.34;5081704;28;20021;-66
2023/11/28 11:12:19;;;;;;;8.70;5.97;;;;;;;-145.63;53.25;39020.34;5082131;28;20032;-65
2023/11/28 11:14:51;;;;;;;8.35;5.75;;;;;;;-145.63;52.96;39157.22;5081846;28;20065;-66